Kaylor, South Dakota
Current Conditions -  °F | °C
As of 10:55 AM on Sunday 23 Nov 2014 (Local Time) from KYKN Reporting Station
Few Clouds Few Clouds  
Wind Chill: 35°   Ceiling: Unl
Heat Index: 43°   Visibility: 10mi
Dew Point: 36°   Wind: 15mph
Humidity: 76%   Direction: 300°WNW
Pressure: 29.59"   Gusts: NA
Location:  43.19°N, 97.84°W
Report Text: KYKN 231655Z AUTO 30013KT 10SM FEW037 06/02 A2959 RMK AO1 P0001
Loading
Personal Weather Stations






























Interactive Weather Map New forecast layout! Learn more

10-Day Weather Forecast

Advertisements
Track Severe Weather on mobile